Time;durP1;ratioP1;P1;durP2;ratioP2;P2;SDS_P1;SDS_P2;PMS_P1;PMS_P2;Temp;Humidity;BMP_temperature;BMP_pressure;BME280_temperature;BME280_humidity;BME280_pressure;Samples;Min_cycle;Max_cycle;Signal;HPM_P1;HPM_P2
2021/08/06 00:01:31;;;;;;;;;;;21.40;77.40;;;;;;5033045;28;1067;-67
2021/08/06 00:03:56;;;;;;;;;;;21.40;77.40;;;;;;5032884;28;1055;-67
2021/08/06 00:06:26;;;;;;;;;;;21.40;77.40;;;;;;5033016;28;1087;-68
2021/08/06 00:08:52;;;;;;;;;;;21.40;77.40;;;;;;5032489;28;1184;-67
2021/08/06 00:11:18;;;;;;;;;;;21.40;77.40;;;;;;5042651;28;1228;-67
2021/08/06 00:13:43;;;;;;;;;;;21.40;77.40;;;;;;5042805;28;1163;-68
2021/08/06 00:16:09;;;;;;;;;;;21.40;77.40;;;;;;5046294;28;1076;-68
2021/08/06 00:18:35;;;;;;;;;;;21.40;77.40;;;;;;5038506;28;2036;-67
2021/08/06 00:21:00;;;;;;;;;;;21.40;77.40;;;;;;5032430;28;1126;-68
2021/08/06 00:23:26;;;;;;;;;;;21.40;77.40;;;;;;5032239;28;1075;-67
2021/08/06 00:25:51;;;;;;;;;;;21.40;77.40;;;;;;5035021;28;1269;-68
2021/08/06 00:28:17;;;;;;;;;;;21.40;77.40;;;;;;5052599;28;1211;-68
2021/08/06 00:30:42;;;;;;;;;;;21.40;77.40;;;;;;5032562;28;1146;-67
2021/08/06 00:33:08;;;;;;;;;;;21.40;77.40;;;;;;5032334;28;980;-68
2021/08/06 00:35:33;;;;;;;;;;;21.40;77.40;;;;;;5032020;28;1174;-67
2021/08/06 00:37:58;;;;;;;;;;;21.40;77.40;;;;;;5031854;28;1894;-67
2021/08/06 00:40:24;;;;;;;;;;;21.40;77.40;;;;;;5032455;28;1059;-68
2021/08/06 00:42:50;;;;;;;;;;;21.40;77.40;;;;;;5032370;28;1056;-68
2021/08/06 00:45:15;;;;;;;;;;;21.40;77.50;;;;;;5038219;28;1243;-68
2021/08/06 00:47:41;;;;;;;;;;;21.40;77.50;;;;;;5052047;28;1365;-68
2021/08/06 00:50:06;;;;;;;;;;;21.40;77.40;;;;;;5050892;28;1084;-67
2021/08/06 00:52:32;;;;;;;;;;;21.40;77.40;;;;;;5039233;28;1173;-67
2021/08/06 00:54:57;;;;;;;;;;;21.40;77.40;;;;;;5030657;28;1122;-67
2021/08/06 00:57:22;;;;;;;;;;;21.40;77.40;;;;;;5049037;22;3693;-69
2021/08/06 00:59:51;;;;;;;;;;;21.40;77.40;;;;;;5071709;28;1572;-69
2021/08/06 01:02:20;;;;;;;;;;;21.40;77.40;;;;;;5072073;28;1434;-69
2021/08/06 01:05:00;;;;;;;;;;;21.40;77.50;;;;;;5071859;28;1296;-69
2021/08/06 01:07:29;;;;;;;;;;;21.40;77.50;;;;;;5070708;28;1651;-69
2021/08/06 01:09:56;;;;;;;;;;;21.40;77.50;;;;;;5071321;28;1669;-69
2021/08/06 01:12:27;;;;;;;;;;;21.40;77.50;;;;;;5074565;28;1688;-69
2021/08/06 01:14:52;;;;;;;;;;;21.40;77.50;;;;;;5057790;28;1693;-69
2021/08/06 01:17:18;;;;;;;;;;;21.40;77.50;;;;;;5074309;28;1975;-69
2021/08/06 01:19:47;;;;;;;;;;;21.40;77.50;;;;;;5057714;28;1606;-69
2021/08/06 01:22:13;;;;;;;;;;;21.40;77.50;;;;;;5074391;28;1671;-69
2021/08/06 01:24:38;;;;;;;;;;;21.40;77.50;;;;;;5075306;28;1363;-70
2021/08/06 01:27:03;;;;;;;;;;;21.40;77.50;;;;;;5048969;28;1876;-69
2021/08/06 01:29:29;;;;;;;;;;;21.40;77.60;;;;;;5074613;28;1667;-69
2021/08/06 01:31:54;;;;;;;;;;;21.40;77.50;;;;;;5074740;28;1656;-70
2021/08/06 01:34:20;;;;;;;;;;;21.40;77.50;;;;;;5067205;28;1346;-69
2021/08/06 01:36:45;;;;;;;;;;;21.40;77.60;;;;;;5055228;28;1902;-69
2021/08/06 01:39:11;;;;;;;;;;;21.40;77.60;;;;;;5054851;28;1200;-69
2021/08/06 01:41:37;;;;;;;;;;;21.40;77.50;;;;;;5058776;28;1449;-69
2021/08/06 01:44:18;;;;;;;;;;;21.40;77.50;;;;;;5072939;28;1595;-69
2021/08/06 01:46:48;;;;;;;;;;;21.40;77.50;;;;;;5061417;28;1260;-69
2021/08/06 01:49:18;;;;;;;;;;;21.40;77.50;;;;;;5074279;28;1272;-70
2021/08/06 01:51:44;;;;;;;;;;;21.40;77.50;;;;;;5068977;28;1697;-70
2021/08/06 01:54:12;;;;;;;;;;;21.40;77.50;;;;;;5056036;28;1380;-70
2021/08/06 01:56:38;;;;;;;;;;;21.40;77.50;;;;;;5052653;28;1890;-69
2021/08/06 01:59:04;;;;;;;;;;;21.40;77.50;;;;;;5052072;28;1255;-70
2021/08/06 02:01:29;;;;;;;;;;;21.40;77.50;;;;;;5055017;28;1056;-70
2021/08/06 02:03:55;;;;;;;;;;;21.40;77.50;;;;;;5054795;28;1240;-70
2021/08/06 02:06:20;;;;;;;;;;;21.40;77.50;;;;;;5056993;28;1068;-69
2021/08/06 02:08:47;;;;;;;;;;;21.40;77.50;;;;;;5056886;28;1543;-70
2021/08/06 02:11:12;;;;;;;;;;;21.40;77.50;;;;;;5057551;28;1295;-70
2021/08/06 02:13:38;;;;;;;;;;;21.40;77.50;;;;;;5055166;28;1192;-70
2021/08/06 02:16:03;;;;;;;;;;;21.40;77.60;;;;;;5055372;28;1409;-70
2021/08/06 02:18:30;;;;;;;;;;;21.40;78.00;;;;;;5054925;28;1954;-69
2021/08/06 02:20:56;;;;;;;;;;;21.40;78.30;;;;;;5072935;28;1139;-69
2021/08/06 02:23:22;;;;;;;;;;;21.40;77.60;;;;;;5072945;28;1072;-69
2021/08/06 02:25:47;;;;;;;;;;;21.40;77.60;;;;;;5071797;28;1222;-70
2021/08/06 02:28:12;;;;;;;;;;;21.40;77.60;;;;;;5067422;28;1290;-69
2021/08/06 02:30:38;;;;;;;;;;;21.40;77.60;;;;;;5073434;28;1221;-69
2021/08/06 02:33:03;;;;;;;;;;;21.40;77.60;;;;;;5074953;28;1178;-70
2021/08/06 02:35:29;;;;;;;;;;;21.40;77.60;;;;;;5073016;28;1153;-70
2021/08/06 02:37:54;;;;;;;;;;;21.40;77.60;;;;;;5074489;28;1898;-68
2021/08/06 02:40:19;;;;;;;;;;;21.40;77.60;;;;;;5074469;28;1189;-70
2021/08/06 02:42:46;;;;;;;;;;;21.40;77.60;;;;;;5074499;28;1087;-70
2021/08/06 02:45:12;;;;;;;;;;;21.40;77.60;;;;;;5067850;28;1181;-70
2021/08/06 02:47:37;;;;;;;;;;;21.40;77.60;;;;;;5067359;28;1208;-70
2021/08/06 02:50:03;;;;;;;;;;;21.40;77.60;;;;;;5073085;28;1202;-70
2021/08/06 02:52:28;;;;;;;;;;;21.40;77.60;;;;;;5063358;28;1063;-70
2021/08/06 02:54:54;;;;;;;;;;;21.40;77.60;;;;;;5073066;28;1147;-70
2021/08/06 02:57:19;;;;;;;;;;;21.40;77.60;;;;;;5074003;28;1906;-70
2021/08/06 02:59:45;;;;;;;;;;;21.40;77.60;;;;;;5072649;28;1126;-70
2021/08/06 03:02:10;;;;;;;;;;;21.40;77.60;;;;;;5072788;28;1063;-70
2021/08/06 03:04:35;;;;;;;;;;;21.40;77.60;;;;;;5060830;28;1805;-72
2021/08/06 03:07:01;;;;;;;;;;;21.40;77.60;;;;;;5053895;28;972;-72
2021/08/06 03:09:26;;;;;;;;;;;21.40;77.60;;;;;;5060102;28;1215;-71
2021/08/06 03:11:52;;;;;;;;;;;21.40;77.60;;;;;;5073942;28;1154;-71
2021/08/06 03:14:17;;;;;;;;;;;21.40;77.60;;;;;;5055204;28;1087;-71
2021/08/06 03:16:43;;;;;;;;;;;21.40;77.60;;;;;;5072520;28;1961;-71
2021/08/06 03:19:08;;;;;;;;;;;21.40;77.60;;;;;;5073786;28;1338;-72
2021/08/06 03:21:33;;;;;;;;;;;21.40;77.60;;;;;;5073694;28;1149;-73
2021/08/06 03:23:59;;;;;;;;;;;21.40;77.60;;;;;;5073409;28;1052;-71
2021/08/06 03:26:24;;;;;;;;;;;21.40;77.60;;;;;;5065900;28;1134;-73
2021/08/06 03:28:50;;;;;;;;;;;21.40;77.60;;;;;;5069355;28;1267;-71
2021/08/06 03:31:15;;;;;;;;;;;21.40;77.70;;;;;;5071988;28;1122;-72
2021/08/06 03:33:40;;;;;;;;;;;21.40;77.60;;;;;;5044492;28;5604;-72
2021/08/06 03:36:07;;;;;;;;;;;21.40;77.70;;;;;;5064194;28;1055;-72
2021/08/06 03:38:32;;;;;;;;;;;21.40;77.60;;;;;;5071833;28;1902;-72
2021/08/06 03:40:58;;;;;;;;;;;21.40;77.60;;;;;;5072174;28;1102;-71
2021/08/06 03:43:23;;;;;;;;;;;21.40;77.70;;;;;;5044911;28;1525;-68
2021/08/06 03:45:49;;;;;;;;;;;21.40;77.70;;;;;;5069450;28;1891;-66
2021/08/06 03:48:14;;;;;;;;;;;21.40;77.70;;;;;;5070756;28;1302;-66
2021/08/06 03:50:40;;;;;;;;;;;21.40;77.70;;;;;;5071918;28;1098;-66
2021/08/06 03:53:05;;;;;;;;;;;21.40;77.70;;;;;;5059991;28;960;-66
2021/08/06 03:55:31;;;;;;;;;;;21.40;77.70;;;;;;5070528;28;1150;-66
2021/08/06 03:57:57;;;;;;;;;;;21.40;77.70;;;;;;5071085;28;1967;-67
2021/08/06 04:00:23;;;;;;;;;;;21.40;77.70;;;;;;5071805;28;1063;-67
2021/08/06 04:02:48;;;;;;;;;;;21.40;77.70;;;;;;5072022;28;1099;-67
2021/08/06 04:05:14;;;;;;;;;;;21.40;77.70;;;;;;5071681;28;1146;-67
2021/08/06 04:07:46;;;;;;;;;;;21.40;77.90;;;;;;5071832;28;1275;-67
2021/08/06 04:10:11;;;;;;;;;;;21.40;77.70;;;;;;5072068;28;1055;-68
2021/08/06 04:12:37;;;;;;;;;;;21.40;77.70;;;;;;5069977;28;1158;-67
2021/08/06 04:15:02;;;;;;;;;;;21.40;77.70;;;;;;5071694;28;967;-67
2021/08/06 04:17:28;;;;;;;;;;;21.40;77.70;;;;;;5064576;28;1965;-67
2021/08/06 04:19:53;;;;;;;;;;;21.40;77.70;;;;;;5055796;28;1244;-67
2021/08/06 04:22:19;;;;;;;;;;;21.40;77.70;;;;;;5068772;28;1166;-67
2021/08/06 04:24:44;;;;;;;;;;;21.40;77.70;;;;;;5069660;28;1187;-67
2021/08/06 04:27:09;;;;;;;;;;;21.40;77.70;;;;;;5062076;28;1239;-67
2021/08/06 04:29:35;;;;;;;;;;;21.40;77.80;;;;;;5071118;28;1118;-67
2021/08/06 04:32:00;;;;;;;;;;;21.40;77.70;;;;;;5071008;28;1132;-67
2021/08/06 04:34:26;;;;;;;;;;;21.40;77.70;;;;;;5055919;28;1276;-67
2021/08/06 04:36:53;;;;;;;;;;;21.40;77.70;;;;;;5062896;28;1945;-67
2021/08/06 04:39:19;;;;;;;;;;;21.40;77.70;;;;;;5070751;28;1308;-68
2021/08/06 04:41:44;;;;;;;;;;;21.40;77.70;;;;;;5070690;28;1124;-67
2021/08/06 04:44:09;;;;;;;;;;;21.40;78.40;;;;;;5070045;28;1106;-71
2021/08/06 04:46:35;;;;;;;;;;;21.40;77.70;;;;;;5075610;28;1135;-71
2021/08/06 04:49:00;;;;;;;;;;;21.40;77.70;;;;;;5076537;28;1203;-71
2021/08/06 04:51:26;;;;;;;;;;;21.40;77.70;;;;;;5073144;28;1043;-71
2021/08/06 04:53:51;;;;;;;;;;;21.40;77.70;;;;;;5069921;28;1084;-71
2021/08/06 04:56:17;;;;;;;;;;;21.40;77.80;;;;;;5075951;28;1178;-71
2021/08/06 04:58:42;;;;;;;;;;;21.40;77.80;;;;;;5076200;28;1967;-72
2021/08/06 05:01:07;;;;;;;;;;;21.40;77.70;;;;;;5076294;28;1177;-72
2021/08/06 05:03:33;;;;;;;;;;;21.40;77.70;;;;;;5075307;28;1118;-71
2021/08/06 05:05:58;;;;;;;;;;;21.40;77.70;;;;;;5074745;28;1135;-71
2021/08/06 05:08:24;;;;;;;;;;;21.40;77.70;;;;;;5076527;28;1282;-70
2021/08/06 05:10:49;;;;;;;;;;;21.40;77.80;;;;;;5075873;28;1166;-68
2021/08/06 05:13:15;;;;;;;;;;;21.40;77.80;;;;;;5060615;28;2148;-68
2021/08/06 05:15:40;;;;;;;;;;;21.40;77.80;;;;;;5058815;28;1703;-68
2021/08/06 05:18:05;;;;;;;;;;;21.40;77.80;;;;;;5061809;28;1910;-69
2021/08/06 05:20:31;;;;;;;;;;;21.40;77.70;;;;;;5060387;28;1154;-68
2021/08/06 05:22:56;;;;;;;;;;;21.40;77.80;;;;;;5074702;28;1202;-69
2021/08/06 05:25:22;;;;;;;;;;;21.40;77.70;;;;;;5075321;28;1102;-69
2021/08/06 05:27:47;;;;;;;;;;;21.40;77.70;;;;;;5067815;28;1259;-69
2021/08/06 05:30:13;;;;;;;;;;;21.40;77.80;;;;;;5075675;28;1118;-68
2021/08/06 05:32:38;;;;;;;;;;;21.40;77.70;;;;;;5064166;28;1094;-68
2021/08/06 05:35:04;;;;;;;;;;;21.40;77.70;;;;;;5057940;28;1226;-69
2021/08/06 05:37:29;;;;;;;;;;;21.40;77.70;;;;;;5075746;28;1910;-68
2021/08/06 05:39:55;;;;;;;;;;;21.40;77.70;;;;;;5075412;28;1189;-67
2021/08/06 05:42:20;;;;;;;;;;;21.40;77.70;;;;;;5075817;28;1177;-67
2021/08/06 05:44:45;;;;;;;;;;;21.40;77.70;;;;;;5075053;28;1190;-67
2021/08/06 05:47:11;;;;;;;;;;;21.40;77.70;;;;;;5074216;28;1210;-67
2021/08/06 05:49:36;;;;;;;;;;;21.40;77.70;;;;;;5075203;28;1110;-67
2021/08/06 05:52:02;;;;;;;;;;;21.40;77.70;;;;;;5066423;28;1138;-67
2021/08/06 05:54:27;;;;;;;;;;;21.40;77.70;;;;;;5072412;28;1138;-67
2021/08/06 05:56:53;;;;;;;;;;;21.40;77.70;;;;;;5074963;28;1894;-68
2021/08/06 05:59:18;;;;;;;;;;;21.40;77.70;;;;;;5074851;28;1262;-68
2021/08/06 06:01:44;;;;;;;;;;;21.40;78.40;;;;;;5075761;28;1079;-67
2021/08/06 06:04:09;;;;;;;;;;;21.40;77.70;;;;;;5074971;28;1143;-68
2021/08/06 06:06:35;;;;;;;;;;;21.40;77.70;;;;;;5075150;28;1165;-69
2021/08/06 06:09:00;;;;;;;;;;;21.40;77.70;;;;;;5073701;28;1355;-69
2021/08/06 06:11:25;;;;;;;;;;;21.40;77.70;;;;;;5074839;28;1055;-68
2021/08/06 06:13:51;;;;;;;;;;;21.40;77.70;;;;;;5075009;28;1206;-69
2021/08/06 06:16:16;;;;;;;;;;;21.40;77.70;;;;;;5073499;28;1118;-68
2021/08/06 06:18:42;;;;;;;;;;;21.40;77.70;;;;;;5074801;28;1968;-69
2021/08/06 06:21:10;;;;;;;;;;;21.40;77.70;;;;;;5075113;28;1091;-68
2021/08/06 06:23:35;;;;;;;;;;;21.40;77.70;;;;;;5073717;28;1074;-68
2021/08/06 06:26:01;;;;;;;;;;;21.40;77.70;;;;;;5068708;28;1134;-69
2021/08/06 06:28:26;;;;;;;;;;;21.40;77.70;;;;;;5071278;28;1348;-68
2021/08/06 06:30:52;;;;;;;;;;;21.40;77.70;;;;;;5074504;28;1130;-68
2021/08/06 06:33:17;;;;;;;;;;;21.40;77.70;;;;;;5071060;28;1159;-68
2021/08/06 06:35:42;;;;;;;;;;;21.40;77.70;;;;;;5063102;28;1147;-68
2021/08/06 06:38:08;;;;;;;;;;;21.40;77.70;;;;;;5073137;28;1963;-68
2021/08/06 06:40:33;;;;;;;;;;;21.40;77.70;;;;;;5074206;28;1059;-69
2021/08/06 06:42:59;;;;;;;;;;;21.40;77.70;;;;;;5056553;28;1091;-70
2021/08/06 06:45:24;;;;;;;;;;;21.40;77.80;;;;;;5072869;28;1062;-73
2021/08/06 06:47:50;;;;;;;;;;;21.40;77.70;;;;;;5073100;28;1218;-71
2021/08/06 06:50:16;;;;;;;;;;;21.40;77.70;;;;;;5073261;28;1126;-72
2021/08/06 06:52:42;;;;;;;;;;;21.40;77.70;;;;;;5045942;28;1174;-71
2021/08/06 06:55:08;;;;;;;;;;;21.40;77.70;;;;;;5072556;28;1079;-72
2021/08/06 07:00:01;;;;;;;;;;;21.40;77.70;;;;;;5029297;28;2502;-68
2021/08/06 07:02:26;;;;;;;;;;;21.40;77.70;;;;;;5032976;28;1576;-68
2021/08/06 07:04:52;;;;;;;;;;;21.40;77.80;;;;;;5033410;28;1671;-68
2021/08/06 07:07:17;;;;;;;;;;;21.40;77.80;;;;;;5033239;28;1665;-68
2021/08/06 07:09:43;;;;;;;;;;;21.40;77.80;;;;;;5033307;28;1656;-68
2021/08/06 07:12:08;;;;;;;;;;;21.40;77.80;;;;;;5033641;28;1703;-68
2021/08/06 07:14:34;;;;;;;;;;;21.40;77.80;;;;;;5032879;28;1666;-68
2021/08/06 07:16:59;;;;;;;;;;;21.40;77.80;;;;;;5033794;28;1910;-68
2021/08/06 07:19:25;;;;;;;;;;;21.40;78.10;;;;;;5033828;28;1397;-67
2021/08/06 07:21:50;;;;;;;;;;;21.40;78.10;;;;;;5033795;28;1183;-69
2021/08/06 07:24:16;;;;;;;;;;;21.50;78.10;;;;;;5033395;28;1456;-68
2021/08/06 07:26:41;;;;;;;;;;;21.50;78.30;;;;;;5032265;28;1411;-68
2021/08/06 07:29:07;;;;;;;;;;;21.50;78.20;;;;;;5032109;28;1340;-68
2021/08/06 07:31:32;;;;;;;;;;;21.50;78.10;;;;;;5032050;28;1416;-68
2021/08/06 07:33:57;;;;;;;;;;;21.50;78.00;;;;;;5032699;28;1534;-68
2021/08/06 07:36:23;;;;;;;;;;;21.50;78.00;;;;;;5032921;28;1477;-69
2021/08/06 07:38:48;;;;;;;;;;;21.50;78.00;;;;;;5033340;28;1948;-69
2021/08/06 07:41:14;;;;;;;;;;;21.50;77.90;;;;;;5033242;28;1728;-68
2021/08/06 07:43:39;;;;;;;;;;;21.50;77.90;;;;;;5033476;28;1449;-65
2021/08/06 07:46:04;;;;;;;;;;;21.50;77.90;;;;;;5030860;28;2012;-66
2021/08/06 07:48:30;;;;;;;;;;;21.50;78.00;;;;;;5029268;28;2216;-66
2021/08/06 07:50:55;;;;;;;;;;;21.50;78.00;;;;;;5049048;28;1736;-69
2021/08/06 07:53:21;;;;;;;;;;;21.50;78.10;;;;;;5030881;28;2148;-68
2021/08/06 07:55:46;;;;;;;;;;;21.50;78.10;;;;;;5032710;28;1574;-68
2021/08/06 07:58:12;;;;;;;;;;;21.50;78.00;;;;;;5032950;28;1965;-69
2021/08/06 08:00:37;;;;;;;;;;;21.50;77.90;;;;;;5033015;28;1499;-67
2021/08/06 08:03:03;;;;;;;;;;;21.50;78.00;;;;;;5029787;28;2290;-67
2021/08/06 08:05:28;;;;;;;;;;;21.40;78.00;;;;;;5028412;28;1511;-68
2021/08/06 08:07:53;;;;;;;;;;;21.50;78.20;;;;;;5032720;28;1478;-67
2021/08/06 08:10:20;;;;;;;;;;;21.50;78.30;;;;;;5032332;28;1686;-68
2021/08/06 08:12:46;;;;;;;;;;;21.50;78.30;;;;;;5032578;28;1567;-68
2021/08/06 08:15:11;;;;;;;;;;;21.50;78.30;;;;;;5030426;28;1686;-68
2021/08/06 08:17:37;;;;;;;;;;;21.50;78.30;;;;;;5014612;28;1962;-67
2021/08/06 08:20:02;;;;;;;;;;;21.50;78.40;;;;;;5032391;28;1672;-68
2021/08/06 08:22:28;;;;;;;;;;;21.50;78.40;;;;;;5032886;28;1362;-68
2021/08/06 08:24:53;;;;;;;;;;;21.50;78.50;;;;;;5032637;28;1508;-66
2021/08/06 08:27:19;;;;;;;;;;;21.50;79.30;;;;;;5031631;28;1970;-65
2021/08/06 08:29:47;;;;;;;;;;;21.50;78.50;;;;;;5041960;28;1517;-68
2021/08/06 08:32:14;;;;;;;;;;;21.50;78.70;;;;;;5042518;28;1429;-67
2021/08/06 08:34:39;;;;;;;;;;;21.50;78.80;;;;;;5032700;28;1595;-68
2021/08/06 08:37:05;;;;;;;;;;;21.50;78.70;;;;;;5043802;28;1898;-67
2021/08/06 08:39:30;;;;;;;;;;;21.50;78.70;;;;;;5036231;28;1517;-68
2021/08/06 08:41:58;;;;;;;;;;;21.50;78.80;;;;;;5031240;28;1367;-68
2021/08/06 08:44:23;;;;;;;;;;;21.50;78.80;;;;;;5037207;28;1625;-67
2021/08/06 08:46:48;;;;;;;;;;;21.50;78.80;;;;;;5042242;28;1650;-68
2021/08/06 08:49:14;;;;;;;;;;;21.50;78.50;;;;;;5031319;28;1298;-65
2021/08/06 08:51:40;;;;;;;;;;;21.50;79.50;;;;;;5031157;28;1159;-66
2021/08/06 08:54:05;;;;;;;;;;;21.50;79.60;;;;;;5031223;28;1214;-67
2021/08/06 08:56:31;;;;;;;;;;;21.60;79.10;;;;;;5032777;28;1143;-67
2021/08/06 08:58:56;;;;;;;;;;;21.60;78.80;;;;;;5032158;28;1890;-66
2021/08/06 09:01:22;;;;;;;;;;;21.60;78.70;;;;;;5031336;28;1072;-67
2021/08/06 09:03:48;;;;;;;;;;;21.60;77.90;;;;;;5031327;28;1188;-67
2021/08/06 09:06:14;;;;;;;;;;;21.60;76.60;;;;;;5031987;28;1076;-67
2021/08/06 09:08:40;;;;;;;;;;;21.60;76.00;;;;;;5032428;28;1270;-67
2021/08/06 09:11:24;;;;;;;;;;;21.60;77.90;;;;;;5032403;28;1116;-66
2021/08/06 09:13:50;;;;;;;;;;;21.60;77.10;;;;;;5032400;28;1456;-67
2021/08/06 09:16:15;;;;;;;;;;;21.60;77.30;;;;;;5032229;28;1068;-67
2021/08/06 09:18:41;;;;;;;;;;;21.70;76.60;;;;;;5032023;28;1906;-66
2021/08/06 09:21:06;;;;;;;;;;;21.70;76.50;;;;;;5032321;28;1064;-66
2021/08/06 09:23:35;;;;;;;;;;;21.70;76.90;;;;;;5032341;28;1128;-67
2021/08/06 09:26:00;;;;;;;;;;;21.70;76.50;;;;;;5032006;28;1139;-67
2021/08/06 09:28:25;;;;;;;;;;;21.70;75.90;;;;;;5032158;28;1202;-66
2021/08/06 09:30:51;;;;;;;;;;;21.70;76.70;;;;;;5032863;28;1107;-67
2021/08/06 09:33:17;;;;;;;;;;;21.70;75.70;;;;;;5036000;28;1103;-67
2021/08/06 09:35:42;;;;;;;;;;;21.70;76.40;;;;;;5034248;28;1094;-67
2021/08/06 09:38:17;;;;;;;;;;;21.70;76.70;;;;;;5035605;28;1874;-66
2021/08/06 09:40:43;;;;;;;;;;;21.70;74.90;;;;;;5035934;28;1201;-67
2021/08/06 09:43:14;;;;;;;;;;;21.70;74.40;;;;;;5035675;28;1104;-67
2021/08/06 09:45:39;;;;;;;;;;;21.70;73.60;;;;;;5034293;28;1088;-67
2021/08/06 09:48:05;;;;;;;;;;;21.70;73.10;;;;;;5034344;28;1287;-67
2021/08/06 09:50:31;;;;;;;;;;;21.70;74.30;;;;;;5035616;28;1060;-67
2021/08/06 09:52:56;;;;;;;;;;;21.70;75.00;;;;;;5035445;28;1057;-66
2021/08/06 09:55:23;;;;;;;;;;;21.70;73.60;;;;;;5035312;28;1072;-67
2021/08/06 09:57:50;;;;;;;;;;;21.70;72.30;;;;;;5033999;28;1883;-66
2021/08/06 10:00:16;;;;;;;;;;;21.70;73.20;;;;;;5035442;28;1084;-67
2021/08/06 10:02:44;;;;;;;;;;;21.70;73.70;;;;;;5034235;28;1148;-67
2021/08/06 10:05:19;;;;;;;;;;;21.70;73.40;;;;;;5034170;28;1191;-67
2021/08/06 10:07:49;;;;;;;;;;;21.80;73.20;;;;;;5036063;28;1304;-67
2021/08/06 10:10:19;;;;;;;;;;;21.80;71.00;;;;;;5036435;28;1167;-67
2021/08/06 10:12:44;;;;;;;;;;;21.80;70.70;;;;;;5036387;28;1112;-67
2021/08/06 10:15:10;;;;;;;;;;;21.80;72.40;;;;;;5035888;28;1120;-67
2021/08/06 10:17:35;;;;;;;;;;;21.80;71.10;;;;;;5035301;28;1914;-67
2021/08/06 10:20:01;;;;;;;;;;;21.80;73.70;;;;;;5034808;28;1143;-67
2021/08/06 10:22:26;;;;;;;;;;;21.80;72.10;;;;;;5027972;28;2114;-67
2021/08/06 10:24:52;;;;;;;;;;;21.80;72.60;;;;;;5034202;28;1268;-66
2021/08/06 10:27:19;;;;;;;;;;;21.80;71.60;;;;;;5034790;28;1135;-67
2021/08/06 10:29:54;;;;;;;;;;;21.80;70.30;;;;;;5033167;28;1359;-67
2021/08/06 10:32:19;;;;;;;;;;;21.80;70.40;;;;;;5033715;28;1135;-67
2021/08/06 10:35:03;;;;;;;;;;;21.80;71.70;;;;;;5034311;28;1060;-67
2021/08/06 10:37:58;;;;;;;;;;;21.80;72.90;;;;;;5033565;28;1965;-67
2021/08/06 10:40:33;;;;;;;;;;;21.80;75.50;;;;;;5025474;28;1105;-65
2021/08/06 10:43:08;;;;;;;;;;;21.80;76.20;;;;;;5033617;28;1371;-67
2021/08/06 10:45:45;;;;;;;;;;;21.80;75.00;;;;;;5034293;28;1150;-67
2021/08/06 10:48:26;;;;;;;;;;;21.90;73.80;;;;;;5034338;28;1310;-67
2021/08/06 10:51:10;;;;;;;;;;;21.80;72.30;;;;;;5034364;28;1052;-67
2021/08/06 10:53:35;;;;;;;;;;;21.80;71.70;;;;;;5024675;28;1195;-68
2021/08/06 10:56:30;;;;;;;;;;;21.80;71.90;;;;;;5033798;28;1072;-67
2021/08/06 10:58:56;;;;;;;;;;;21.80;70.30;;;;;;5024830;28;1898;-67
2021/08/06 11:01:25;;;;;;;;;;;21.80;68.30;;;;;;5034225;28;1052;-68
2021/08/06 11:03:54;;;;;;;;;;;21.90;65.70;;;;;;5034184;28;1060;-68
2021/08/06 11:06:35;;;;;;;;;;;21.90;65.60;;;;;;5034210;28;1146;-68
2021/08/06 11:09:02;;;;;;;;;;;21.90;65.00;;;;;;5033975;28;1759;-66
2021/08/06 11:11:39;;;;;;;;;;;21.90;64.10;;;;;;5033916;28;1174;-67
2021/08/06 11:14:04;;;;;;;;;;;21.90;65.40;;;;;;5032687;28;1045;-68
2021/08/06 11:16:29;;;;;;;;;;;22.00;66.10;;;;;;5033955;28;1088;-67
2021/08/06 11:18:55;;;;;;;;;;;21.90;64.90;;;;;;5026376;28;1902;-66
2021/08/06 11:21:21;;;;;;;;;;;22.00;63.90;;;;;;5025855;28;1400;-65
2021/08/06 11:23:54;;;;;;;;;;;21.90;64.00;;;;;;5032110;28;1008;-64
2021/08/06 11:26:19;;;;;;;;;;;22.00;63.30;;;;;;5032538;28;1138;-65
2021/08/06 11:28:44;;;;;;;;;;;22.00;62.60;;;;;;5032858;28;1288;-65
2021/08/06 11:31:16;;;;;;;;;;;22.00;63.40;;;;;;5031460;28;1076;-65
2021/08/06 11:33:42;;;;;;;;;;;22.00;63.20;;;;;;5032648;28;1151;-64
2021/08/06 11:36:14;;;;;;;;;;;22.00;63.20;;;;;;5032104;28;1088;-68
2021/08/06 11:38:40;;;;;;;;;;;22.00;63.00;;;;;;5031342;28;2374;-68
2021/08/06 11:41:05;;;;;;;;;;;22.00;61.50;;;;;;5032579;28;1159;-69
2021/08/06 11:43:36;;;;;;;;;;;22.00;60.10;;;;;;5031604;28;1204;-69
2021/08/06 11:46:06;;;;;;;;;;;22.10;60.50;;;;;;5031009;28;1061;-69
2021/08/06 11:48:50;;;;;;;;;;;22.00;61.00;;;;;;5031154;28;1230;-69
2021/08/06 11:51:16;;;;;;;;;;;22.00;61.90;;;;;;5032075;28;1147;-68
2021/08/06 11:53:42;;;;;;;;;;;22.00;60.20;;;;;;5032369;28;1104;-69
2021/08/06 11:56:11;;;;;;;;;;;22.10;59.00;;;;;;5032016;28;1090;-68
2021/08/06 11:58:37;;;;;;;;;;;22.10;59.40;;;;;;5031881;28;1902;-68
2021/08/06 12:01:03;;;;;;;;;;;22.10;58.50;;;;;;5030993;28;1119;-68
2021/08/06 12:03:28;;;;;;;;;;;22.10;57.40;;;;;;5032417;28;1151;-68
2021/08/06 12:06:00;;;;;;;;;;;22.10;57.10;;;;;;5031588;28;1048;-65
2021/08/06 12:08:33;;;;;;;;;;;22.10;57.00;;;;;;5032468;28;1319;-65
2021/08/06 12:11:04;;;;;;;;;;;22.10;57.10;;;;;;5032090;28;1305;-69
2021/08/06 12:13:29;;;;;;;;;;;22.10;58.00;;;;;;5032018;28;1064;-66
2021/08/06 12:16:01;;;;;;;;;;;22.00;59.50;;;;;;5031474;28;1242;-66
2021/08/06 12:18:27;;;;;;;;;;;22.00;59.00;;;;;;5031892;28;1961;-67
2021/08/06 12:20:53;;;;;;;;;;;22.10;58.30;;;;;;5031840;28;1068;-67
2021/08/06 12:23:19;;;;;;;;;;;22.10;58.40;;;;;;5031951;28;1040;-67
2021/08/06 12:26:00;;;;;;;;;;;22.10;58.50;;;;;;5026146;28;1699;-66
2021/08/06 12:28:26;;;;;;;;;;;22.10;58.40;;;;;;5029931;28;1318;-65
2021/08/06 12:30:57;;;;;;;;;;;22.10;55.70;;;;;;5031061;28;1068;-65
2021/08/06 12:33:23;;;;;;;;;;;22.10;56.50;;;;;;5030128;28;1563;-64
2021/08/06 12:35:48;;;;;;;;;;;22.10;57.90;;;;;;5030312;28;1103;-64
2021/08/06 12:38:23;;;;;;;;;;;22.10;58.20;;;;;;5029168;28;1898;-64
2021/08/06 12:40:48;;;;;;;;;;;22.10;56.90;;;;;;5030533;28;1107;-65
2021/08/06 12:43:18;;;;;;;;;;;22.10;57.90;;;;;;5031082;28;1049;-65
2021/08/06 12:45:43;;;;;;;;;;;22.10;58.70;;;;;;5029222;28;1080;-65
2021/08/06 12:48:09;;;;;;;;;;;22.10;59.00;;;;;;5030984;28;1224;-65
2021/08/06 12:50:34;;;;;;;;;;;22.10;59.20;;;;;;5031351;28;1132;-65
2021/08/06 12:53:01;;;;;;;;;;;22.10;58.80;;;;;;5030919;28;1072;-64
2021/08/06 12:55:26;;;;;;;;;;;22.10;58.00;;;;;;5030240;28;1045;-65
2021/08/06 12:57:52;;;;;;;;;;;22.10;59.10;;;;;;5030269;28;1898;-65
2021/08/06 13:00:22;;;;;;;;;;;22.10;58.70;;;;;;5031196;28;1091;-64
2021/08/06 13:03:06;;;;;;;;;;;22.10;59.20;;;;;;5028209;28;1076;-65
2021/08/06 13:05:32;;;;;;;;;;;22.10;58.90;;;;;;5029988;28;1147;-65
2021/08/06 13:08:18;;;;;;;;;;;22.10;57.90;;;;;;5035154;28;1309;-64
2021/08/06 13:10:44;;;;;;;;;;;22.10;57.90;;;;;;5035660;28;1107;-65
2021/08/06 13:13:11;;;;;;;;;;;22.10;58.20;;;;;;5081840;22;3695;-73
2021/08/06 13:15:36;;;;;;;;;;;22.10;58.70;;;;;;5068619;28;1047;-72
2021/08/06 13:18:02;;;;;;;;;;;22.10;58.50;;;;;;5060445;28;1980;-73
2021/08/06 13:20:27;;;;;;;;;;;22.10;55.80;;;;;;5035998;28;1088;-73
2021/08/06 13:22:53;;;;;;;;;;;22.10;57.50;;;;;;5034801;28;1314;-73
2021/08/06 13:25:19;;;;;;;;;;;22.10;57.00;;;;;;5035981;28;1201;-73
2021/08/06 13:27:45;;;;;;;;;;;22.10;56.60;;;;;;5054506;28;1076;-73
2021/08/06 13:30:12;;;;;;;;;;;22.10;56.70;;;;;;5037558;28;1138;-73
2021/08/06 13:32:37;;;;;;;;;;;22.10;56.80;;;;;;5035804;28;1375;-74
2021/08/06 13:35:03;;;;;;;;;;;22.10;57.70;;;;;;5053511;28;1248;-73
2021/08/06 13:37:28;;;;;;;;;;;22.10;57.20;;;;;;5056039;28;1910;-74
2021/08/06 13:39:54;;;;;;;;;;;22.10;57.30;;;;;;5055720;28;1150;-74
2021/08/06 13:42:19;;;;;;;;;;;22.20;56.20;;;;;;5055994;28;1256;-73
2021/08/06 13:44:45;;;;;;;;;;;22.10;55.90;;;;;;5055364;28;1122;-74
2021/08/06 13:47:11;;;;;;;;;;;22.10;55.80;;;;;;5055645;28;1129;-74
2021/08/06 13:49:36;;;;;;;;;;;22.20;57.10;;;;;;5055391;28;1122;-74
2021/08/06 13:52:02;;;;;;;;;;;22.10;58.90;;;;;;5047905;28;1243;-73
2021/08/06 13:54:27;;;;;;;;;;;22.10;58.20;;;;;;5035392;28;1123;-73
2021/08/06 13:56:53;;;;;;;;;;;22.10;58.20;;;;;;5035297;28;1894;-74
2021/08/06 13:59:20;;;;;;;;;;;22.20;58.20;;;;;;5034201;28;1193;-73
2021/08/06 14:01:45;;;;;;;;;;;22.20;58.70;;;;;;5035216;28;1350;-73
2021/08/06 14:04:11;;;;;;;;;;;22.20;58.40;;;;;;5033729;28;1123;-73
2021/08/06 14:06:36;;;;;;;;;;;22.20;58.80;;;;;;5034276;28;1075;-74
2021/08/06 14:09:02;;;;;;;;;;;22.20;59.60;;;;;;5033956;28;1179;-74
2021/08/06 14:11:27;;;;;;;;;;;22.20;59.00;;;;;;5034160;28;1355;-74
2021/08/06 14:13:53;;;;;;;;;;;22.20;58.40;;;;;;5034042;28;1102;-73
2021/08/06 14:16:18;;;;;;;;;;;22.20;58.10;;;;;;5034998;28;1111;-74
2021/08/06 14:18:44;;;;;;;;;;;22.20;56.30;;;;;;5034608;28;1963;-74
2021/08/06 14:21:09;;;;;;;;;;;22.20;54.70;;;;;;5035329;28;1067;-74
2021/08/06 14:23:35;;;;;;;;;;;22.30;56.00;;;;;;5034858;28;1196;-73
2021/08/06 14:26:01;;;;;;;;;;;22.30;58.10;;;;;;5037631;28;1087;-73
2021/08/06 14:28:27;;;;;;;;;;;22.30;59.10;;;;;;5050545;28;1962;-74
2021/08/06 14:30:53;;;;;;;;;;;22.20;59.10;;;;;;5050006;28;1182;-73